sensor_id;sensor_type;location;lat;lon;timestamp;temperature;humidity
21944;DHT22;11136;48.778;9.126;2023-05-10T00:00:08;16.60;99.90
21944;DHT22;11136;48.778;9.126;2023-05-10T00:02:35;16.60;99.90
21944;DHT22;11136;48.778;9.126;2023-05-10T00:05:01;16.50;99.90
21944;DHT22;11136;48.778;9.126;2023-05-10T00:07:27;16.50;99.90
21944;DHT22;11136;48.778;9.126;2023-05-10T00:09:52;16.50;99.90
21944;DHT22;11136;48.778;9.126;2023-05-10T00:12:18;16.50;99.90
21944;DHT22;11136;48.778;9.126;2023-05-10T00:14:43;16.50;99.90
21944;DHT22;11136;48.778;9.126;2023-05-10T00:17:09;16.50;99.90
21944;DHT22;11136;48.778;9.126;2023-05-10T00:19:35;16.50;99.90
21944;DHT22;11136;48.778;9.126;2023-05-10T00:22:00;16.40;99.90
21944;DHT22;11136;48.778;9.126;2023-05-10T00:24:27;16.40;99.90
21944;DHT22;11136;48.778;9.126;2023-05-10T00:26:52;16.40;99.90
21944;DHT22;11136;48.778;9.126;2023-05-10T00:29:18;16.40;99.90
21944;DHT22;11136;48.778;9.126;2023-05-10T00:31:43;16.40;99.90
21944;DHT22;11136;48.778;9.126;2023-05-10T00:34:09;16.30;99.90
21944;DHT22;11136;48.778;9.126;2023-05-10T00:36:34;16.30;99.90
21944;DHT22;11136;48.778;9.126;2023-05-10T00:39:00;16.30;99.90
21944;DHT22;11136;48.778;9.126;2023-05-10T00:41:26;16.20;99.90
21944;DHT22;11136;48.778;9.126;2023-05-10T00:43:51;16.20;99.90
21944;DHT22;11136;48.778;9.126;2023-05-10T00:46:17;16.20;99.90
21944;DHT22;11136;48.778;9.126;2023-05-10T00:48:44;16.10;99.90
21944;DHT22;11136;48.778;9.126;2023-05-10T00:51:10;16.10;99.90
21944;DHT22;11136;48.778;9.126;2023-05-10T00:53:36;16.10;99.90
21944;DHT22;11136;48.778;9.126;2023-05-10T00:56:02;16.10;99.90
21944;DHT22;11136;48.778;9.126;2023-05-10T00:58:28;16.10;99.90
21944;DHT22;11136;48.778;9.126;2023-05-10T01:00:56;16.10;99.90
21944;DHT22;11136;48.778;9.126;2023-05-10T01:03:23;16.00;99.90
21944;DHT22;11136;48.778;9.126;2023-05-10T01:05:48;16.00;99.90
21944;DHT22;11136;48.778;9.126;2023-05-10T01:08:15;16.00;99.90
21944;DHT22;11136;48.778;9.126;2023-05-10T01:10:42;16.00;99.90
21944;DHT22;11136;48.778;9.126;2023-05-10T01:13:08;16.00;99.90
21944;DHT22;11136;48.778;9.126;2023-05-10T01:15:34;16.00;99.90
21944;DHT22;11136;48.778;9.126;2023-05-10T01:18:01;15.90;99.90
21944;DHT22;11136;48.778;9.126;2023-05-10T01:20:32;16.00;99.90
21944;DHT22;11136;48.778;9.126;2023-05-10T01:33:55;15.90;99.90
21944;DHT22;11136;48.778;9.126;2023-05-10T01:36:32;15.90;99.90
21944;DHT22;11136;48.778;9.126;2023-05-10T01:41:47;15.80;99.90
21944;DHT22;11136;48.778;9.126;2023-05-10T01:47:10;15.70;99.90
21944;DHT22;11136;48.778;9.126;2023-05-10T01:49:43;15.70;99.90
21944;DHT22;11136;48.778;9.126;2023-05-10T01:52:14;15.60;99.90
21944;DHT22;11136;48.778;9.126;2023-05-10T01:54:50;15.60;99.90
21944;DHT22;11136;48.778;9.126;2023-05-10T01:57:19;15.60;99.90
21944;DHT22;11136;48.778;9.126;2023-05-10T01:59:50;15.40;99.90
21944;DHT22;11136;48.778;9.126;2023-05-10T02:02:18;15.50;99.90
21944;DHT22;11136;48.778;9.126;2023-05-10T02:04:45;15.50;99.90
21944;DHT22;11136;48.778;9.126;2023-05-10T02:07:12;15.50;99.90
21944;DHT22;11136;48.778;9.126;2023-05-10T02:09:38;15.50;99.90
21944;DHT22;11136;48.778;9.126;2023-05-10T02:12:05;15.50;99.90
21944;DHT22;11136;48.778;9.126;2023-05-10T02:14:35;15.60;99.90
21944;DHT22;11136;48.778;9.126;2023-05-10T02:17:04;15.50;99.90
21944;DHT22;11136;48.778;9.126;2023-05-10T02:19:31;15.50;99.90
21944;DHT22;11136;48.778;9.126;2023-05-10T02:21:58;15.50;99.90
21944;DHT22;11136;48.778;9.126;2023-05-10T02:24:25;15.50;99.90
21944;DHT22;11136;48.778;9.126;2023-05-10T02:26:54;15.50;99.90
21944;DHT22;11136;48.778;9.126;2023-05-10T02:29:23;15.50;99.90
21944;DHT22;11136;48.778;9.126;2023-05-10T02:31:51;15.40;99.90
21944;DHT22;11136;48.778;9.126;2023-05-10T02:34:19;15.40;99.90
21944;DHT22;11136;48.778;9.126;2023-05-10T02:36:47;15.40;99.90
21944;DHT22;11136;48.778;9.126;2023-05-10T02:39:14;15.40;99.90
21944;DHT22;11136;48.778;9.126;2023-05-10T02:41:42;15.40;99.90
21944;DHT22;11136;48.778;9.126;2023-05-10T02:44:09;15.40;99.90
21944;DHT22;11136;48.778;9.126;2023-05-10T02:46:35;15.40;99.90
21944;DHT22;11136;48.778;9.126;2023-05-10T02:49:02;15.40;99.90
21944;DHT22;11136;48.778;9.126;2023-05-10T02:51:31;15.40;99.90
21944;DHT22;11136;48.778;9.126;2023-05-10T02:54:03;15.40;99.90
21944;DHT22;11136;48.778;9.126;2023-05-10T02:56:34;15.50;99.90
21944;DHT22;11136;48.778;9.126;2023-05-10T02:59:01;15.50;99.90
21944;DHT22;11136;48.778;9.126;2023-05-10T03:01:26;15.50;99.90
21944;DHT22;11136;48.778;9.126;2023-05-10T03:03:52;15.50;99.90
21944;DHT22;11136;48.778;9.126;2023-05-10T03:06:23;15.40;99.90
21944;DHT22;11136;48.778;9.126;2023-05-10T03:08:49;15.40;99.90
21944;DHT22;11136;48.778;9.126;2023-05-10T03:14:31;15.40;99.90
21944;DHT22;11136;48.778;9.126;2023-05-10T03:17:15;15.40;99.90
21944;DHT22;11136;48.778;9.126;2023-05-10T03:23:04;15.40;99.90
21944;DHT22;11136;48.778;9.126;2023-05-10T03:25:23;15.40;99.90
21944;DHT22;11136;48.778;9.126;2023-05-10T03:27:49;15.30;99.90
21944;DHT22;11136;48.778;9.126;2023-05-10T03:30:15;15.30;99.90
21944;DHT22;11136;48.778;9.126;2023-05-10T03:32:42;15.30;99.90
21944;DHT22;11136;48.778;9.126;2023-05-10T03:35:08;15.30;99.90
21944;DHT22;11136;48.778;9.126;2023-05-10T03:37:34;15.30;99.90
21944;DHT22;11136;48.778;9.126;2023-05-10T03:40:01;15.20;99.90
21944;DHT22;11136;48.778;9.126;2023-05-10T03:42:26;15.20;99.90
21944;DHT22;11136;48.778;9.126;2023-05-10T03:44:52;15.20;99.90
21944;DHT22;11136;48.778;9.126;2023-05-10T03:47:18;15.20;99.90
21944;DHT22;11136;48.778;9.126;2023-05-10T03:49:44;15.20;99.90
21944;DHT22;11136;48.778;9.126;2023-05-10T03:52:10;15.20;99.90
21944;DHT22;11136;48.778;9.126;2023-05-10T03:54:35;15.20;99.90
21944;DHT22;11136;48.778;9.126;2023-05-10T03:57:01;15.20;99.90
21944;DHT22;11136;48.778;9.126;2023-05-10T03:59:28;15.10;99.90
21944;DHT22;11136;48.778;9.126;2023-05-10T04:01:53;15.10;99.90
21944;DHT22;11136;48.778;9.126;2023-05-10T04:04:19;15.00;99.90
21944;DHT22;11136;48.778;9.126;2023-05-10T04:06:46;15.00;99.90
21944;DHT22;11136;48.778;9.126;2023-05-10T04:09:12;15.00;99.90
21944;DHT22;11136;48.778;9.126;2023-05-10T04:11:37;14.90;99.90
21944;DHT22;11136;48.778;9.126;2023-05-10T04:14:03;14.90;99.90
21944;DHT22;11136;48.778;9.126;2023-05-10T04:16:28;14.90;99.90
21944;DHT22;11136;48.778;9.126;2023-05-10T04:18:54;15.00;99.90
21944;DHT22;11136;48.778;9.126;2023-05-10T04:21:20;15.00;99.90
21944;DHT22;11136;48.778;9.126;2023-05-10T04:23:45;15.00;99.90
21944;DHT22;11136;48.778;9.126;2023-05-10T04:26:11;15.00;99.90
21944;DHT22;11136;48.778;9.126;2023-05-10T04:28:37;15.00;99.90
21944;DHT22;11136;48.778;9.126;2023-05-10T04:31:07;14.90;99.90
21944;DHT22;11136;48.778;9.126;2023-05-10T04:33:33;15.10;99.90
21944;DHT22;11136;48.778;9.126;2023-05-10T04:35:59;14.90;99.90
21944;DHT22;11136;48.778;9.126;2023-05-10T04:38:25;14.90;99.90
21944;DHT22;11136;48.778;9.126;2023-05-10T04:40:51;14.90;99.90
21944;DHT22;11136;48.778;9.126;2023-05-10T04:43:16;14.90;99.90
21944;DHT22;11136;48.778;9.126;2023-05-10T04:45:42;14.90;99.90
21944;DHT22;11136;48.778;9.126;2023-05-10T04:48:08;14.90;99.90
21944;DHT22;11136;48.778;9.126;2023-05-10T04:50:33;14.90;99.90
21944;DHT22;11136;48.778;9.126;2023-05-10T04:52:59;14.90;99.90
21944;DHT22;11136;48.778;9.126;2023-05-10T04:55:24;14.90;99.90
21944;DHT22;11136;48.778;9.126;2023-05-10T04:57:50;14.90;99.90
21944;DHT22;11136;48.778;9.126;2023-05-10T05:00:16;14.90;99.90
21944;DHT22;11136;48.778;9.126;2023-05-10T05:02:45;15.00;99.90
21944;DHT22;11136;48.778;9.126;2023-05-10T05:05:12;15.00;99.90
21944;DHT22;11136;48.778;9.126;2023-05-10T05:07:38;15.00;99.90
21944;DHT22;11136;48.778;9.126;2023-05-10T05:10:07;15.00;99.90
21944;DHT22;11136;48.778;9.126;2023-05-10T05:12:34;15.00;99.90
21944;DHT22;11136;48.778;9.126;2023-05-10T05:15:00;15.10;99.90
21944;DHT22;11136;48.778;9.126;2023-05-10T05:17:25;15.10;99.90
21944;DHT22;11136;48.778;9.126;2023-05-10T05:19:51;15.10;99.90
21944;DHT22;11136;48.778;9.126;2023-05-10T05:22:17;15.20;99.90
21944;DHT22;11136;48.778;9.126;2023-05-10T05:24:42;15.20;99.90
21944;DHT22;11136;48.778;9.126;2023-05-10T05:27:08;15.20;99.90
21944;DHT22;11136;48.778;9.126;2023-05-10T05:29:34;15.20;99.90
21944;DHT22;11136;48.778;9.126;2023-05-10T05:31:59;15.20;99.90
21944;DHT22;11136;48.778;9.126;2023-05-10T05:34:25;15.30;99.90
21944;DHT22;11136;48.778;9.126;2023-05-10T05:36:51;15.30;99.90
21944;DHT22;11136;48.778;9.126;2023-05-10T05:39:17;15.30;99.90
21944;DHT22;11136;48.778;9.126;2023-05-10T05:41:42;15.30;99.90
21944;DHT22;11136;48.778;9.126;2023-05-10T05:44:08;15.30;99.90
21944;DHT22;11136;48.778;9.126;2023-05-10T05:46:33;15.30;99.90
21944;DHT22;11136;48.778;9.126;2023-05-10T05:48:59;15.30;99.90
21944;DHT22;11136;48.778;9.126;2023-05-10T05:51:25;15.30;99.90
21944;DHT22;11136;48.778;9.126;2023-05-10T05:53:50;15.30;99.90
21944;DHT22;11136;48.778;9.126;2023-05-10T05:56:16;15.30;99.90
21944;DHT22;11136;48.778;9.126;2023-05-10T05:58:42;15.30;99.90
21944;DHT22;11136;48.778;9.126;2023-05-10T06:01:08;15.30;99.90
21944;DHT22;11136;48.778;9.126;2023-05-10T06:03:34;15.30;99.90
21944;DHT22;11136;48.778;9.126;2023-05-10T06:06:00;15.30;99.90
21944;DHT22;11136;48.778;9.126;2023-05-10T06:08:25;15.30;99.90
21944;DHT22;11136;48.778;9.126;2023-05-10T06:10:51;15.30;99.90
21944;DHT22;11136;48.778;9.126;2023-05-10T06:13:16;15.30;99.90
21944;DHT22;11136;48.778;9.126;2023-05-10T06:15:42;15.40;99.90
21944;DHT22;11136;48.778;9.126;2023-05-10T06:18:08;15.40;99.90
21944;DHT22;11136;48.778;9.126;2023-05-10T06:20:33;15.40;99.90
21944;DHT22;11136;48.778;9.126;2023-05-10T06:22:59;15.40;99.90
21944;DHT22;11136;48.778;9.126;2023-05-10T06:25:24;15.40;99.90
21944;DHT22;11136;48.778;9.126;2023-05-10T06:27:50;15.40;99.90
21944;DHT22;11136;48.778;9.126;2023-05-10T06:30:16;15.40;99.90
21944;DHT22;11136;48.778;9.126;2023-05-10T06:32:42;15.40;99.90
21944;DHT22;11136;48.778;9.126;2023-05-10T06:35:09;15.40;99.90
21944;DHT22;11136;48.778;9.126;2023-05-10T06:37:35;15.50;99.90
21944;DHT22;11136;48.778;9.126;2023-05-10T06:40:00;15.50;99.90
21944;DHT22;11136;48.778;9.126;2023-05-10T06:42:27;15.40;99.90
21944;DHT22;11136;48.778;9.126;2023-05-10T06:44:52;15.40;99.90
21944;DHT22;11136;48.778;9.126;2023-05-10T06:47:18;15.40;99.90
21944;DHT22;11136;48.778;9.126;2023-05-10T06:49:44;15.40;99.90
21944;DHT22;11136;48.778;9.126;2023-05-10T06:52:09;15.30;99.90
21944;DHT22;11136;48.778;9.126;2023-05-10T06:54:35;15.30;99.90
21944;DHT22;11136;48.778;9.126;2023-05-10T06:57:01;15.20;99.90
21944;DHT22;11136;48.778;9.126;2023-05-10T06:59:28;15.10;99.90
21944;DHT22;11136;48.778;9.126;2023-05-10T07:01:53;15.10;99.90
21944;DHT22;11136;48.778;9.126;2023-05-10T07:04:19;15.10;99.90
21944;DHT22;11136;48.778;9.126;2023-05-10T07:06:45;15.10;99.90
21944;DHT22;11136;48.778;9.126;2023-05-10T07:09:11;15.10;99.90
21944;DHT22;11136;48.778;9.126;2023-05-10T07:11:38;15.10;99.90
21944;DHT22;11136;48.778;9.126;2023-05-10T07:14:04;15.20;99.90
21944;DHT22;11136;48.778;9.126;2023-05-10T07:16:30;15.30;99.90
21944;DHT22;11136;48.778;9.126;2023-05-10T07:18:56;15.30;99.90
21944;DHT22;11136;48.778;9.126;2023-05-10T07:21:21;15.30;99.90
21944;DHT22;11136;48.778;9.126;2023-05-10T07:23:49;15.40;99.90
21944;DHT22;11136;48.778;9.126;2023-05-10T07:26:15;15.40;99.90
21944;DHT22;11136;48.778;9.126;2023-05-10T07:28:41;15.40;99.90
21944;DHT22;11136;48.778;9.126;2023-05-10T07:31:07;15.50;99.90
21944;DHT22;11136;48.778;9.126;2023-05-10T07:33:32;15.50;99.90
21944;DHT22;11136;48.778;9.126;2023-05-10T07:35:58;15.50;99.90
21944;DHT22;11136;48.778;9.126;2023-05-10T07:38:23;15.50;99.90
21944;DHT22;11136;48.778;9.126;2023-05-10T07:40:49;15.60;99.90
21944;DHT22;11136;48.778;9.126;2023-05-10T07:43:15;15.60;99.90
21944;DHT22;11136;48.778;9.126;2023-05-10T07:45:40;15.60;99.90
21944;DHT22;11136;48.778;9.126;2023-05-10T07:48:06;15.70;99.90
21944;DHT22;11136;48.778;9.126;2023-05-10T07:50:31;15.80;99.90
21944;DHT22;11136;48.778;9.126;2023-05-10T07:52:57;15.70;99.90
21944;DHT22;11136;48.778;9.126;2023-05-10T07:55:22;15.80;99.90
21944;DHT22;11136;48.778;9.126;2023-05-10T07:57:48;15.80;99.90
21944;DHT22;11136;48.778;9.126;2023-05-10T08:00:17;15.80;99.90
21944;DHT22;11136;48.778;9.126;2023-05-10T08:02:43;15.80;99.90
21944;DHT22;11136;48.778;9.126;2023-05-10T08:05:08;15.80;99.90
21944;DHT22;11136;48.778;9.126;2023-05-10T08:07:35;15.90;99.90
21944;DHT22;11136;48.778;9.126;2023-05-10T08:10:01;15.90;99.90
21944;DHT22;11136;48.778;9.126;2023-05-10T08:12:26;15.90;99.90
21944;DHT22;11136;48.778;9.126;2023-05-10T08:14:52;15.90;99.90
21944;DHT22;11136;48.778;9.126;2023-05-10T08:17:17;16.00;99.90
21944;DHT22;11136;48.778;9.126;2023-05-10T08:19:43;16.00;99.90
21944;DHT22;11136;48.778;9.126;2023-05-10T08:22:09;16.00;99.90
21944;DHT22;11136;48.778;9.126;2023-05-10T08:24:34;16.10;99.90
21944;DHT22;11136;48.778;9.126;2023-05-10T08:27:05;16.10;99.90
21944;DHT22;11136;48.778;9.126;2023-05-10T08:29:30;16.20;99.90
21944;DHT22;11136;48.778;9.126;2023-05-10T08:31:56;16.20;99.90
21944;DHT22;11136;48.778;9.126;2023-05-10T08:34:22;16.20;99.90
21944;DHT22;11136;48.778;9.126;2023-05-10T08:36:47;16.30;99.90
21944;DHT22;11136;48.778;9.126;2023-05-10T08:39:13;16.30;99.90
21944;DHT22;11136;48.778;9.126;2023-05-10T08:41:39;16.30;99.90
21944;DHT22;11136;48.778;9.126;2023-05-10T08:44:07;16.30;99.90
21944;DHT22;11136;48.778;9.126;2023-05-10T08:46:33;16.30;99.90
21944;DHT22;11136;48.778;9.126;2023-05-10T08:49:04;16.40;99.90
21944;DHT22;11136;48.778;9.126;2023-05-10T08:51:35;16.40;99.90
21944;DHT22;11136;48.778;9.126;2023-05-10T08:54:03;16.50;99.90
21944;DHT22;11136;48.778;9.126;2023-05-10T08:56:29;16.50;99.90
21944;DHT22;11136;48.778;9.126;2023-05-10T08:58:55;16.50;99.90
21944;DHT22;11136;48.778;9.126;2023-05-10T09:01:21;16.60;99.90
21944;DHT22;11136;48.778;9.126;2023-05-10T09:03:47;16.60;99.90
21944;DHT22;11136;48.778;9.126;2023-05-10T09:06:13;16.60;99.90
21944;DHT22;11136;48.778;9.126;2023-05-10T09:08:41;16.80;99.90
21944;DHT22;11136;48.778;9.126;2023-05-10T09:11:07;16.70;99.90
21944;DHT22;11136;48.778;9.126;2023-05-10T09:13:35;16.70;99.90
21944;DHT22;11136;48.778;9.126;2023-05-10T09:16:01;16.60;99.90
21944;DHT22;11136;48.778;9.126;2023-05-10T09:18:27;16.50;99.90
21944;DHT22;11136;48.778;9.126;2023-05-10T09:20:53;16.40;99.90
21944;DHT22;11136;48.778;9.126;2023-05-10T09:23:19;16.50;99.90
21944;DHT22;11136;48.778;9.126;2023-05-10T09:25:45;16.40;99.90
21944;DHT22;11136;48.778;9.126;2023-05-10T09:28:11;16.40;99.90
21944;DHT22;11136;48.778;9.126;2023-05-10T09:30:36;16.30;99.90
21944;DHT22;11136;48.778;9.126;2023-05-10T09:33:02;16.40;99.90
21944;DHT22;11136;48.778;9.126;2023-05-10T09:35:31;16.40;99.90
21944;DHT22;11136;48.778;9.126;2023-05-10T09:38:02;16.50;99.90
21944;DHT22;11136;48.778;9.126;2023-05-10T09:40:29;16.60;99.90
21944;DHT22;11136;48.778;9.126;2023-05-10T09:43:04;16.60;99.90
21944;DHT22;11136;48.778;9.126;2023-05-10T09:45:33;16.70;99.90
21944;DHT22;11136;48.778;9.126;2023-05-10T09:48:00;16.90;99.90
21944;DHT22;11136;48.778;9.126;2023-05-10T09:50:27;17.00;99.90
21944;DHT22;11136;48.778;9.126;2023-05-10T09:52:57;17.00;99.90
21944;DHT22;11136;48.778;9.126;2023-05-10T09:55:41;17.10;99.90
21944;DHT22;11136;48.778;9.126;2023-05-10T09:58:07;17.20;99.90
21944;DHT22;11136;48.778;9.126;2023-05-10T10:00:43;17.30;99.90
21944;DHT22;11136;48.778;9.126;2023-05-10T10:03:20;17.40;99.90
21944;DHT22;11136;48.778;9.126;2023-05-10T10:05:47;17.40;99.90
21944;DHT22;11136;48.778;9.126;2023-05-10T10:08:14;17.50;99.90
21944;DHT22;11136;48.778;9.126;2023-05-10T10:10:41;17.60;99.90
21944;DHT22;11136;48.778;9.126;2023-05-10T10:13:07;17.70;99.90
21944;DHT22;11136;48.778;9.126;2023-05-10T10:15:34;17.70;99.90
21944;DHT22;11136;48.778;9.126;2023-05-10T10:18:00;17.80;99.90
21944;DHT22;11136;48.778;9.126;2023-05-10T10:20:27;17.90;99.90
21944;DHT22;11136;48.778;9.126;2023-05-10T10:22:53;17.90;99.90
21944;DHT22;11136;48.778;9.126;2023-05-10T10:25:19;18.10;99.90
21944;DHT22;11136;48.778;9.126;2023-05-10T10:35:45;18.10;99.90
21944;DHT22;11136;48.778;9.126;2023-05-10T10:38:12;18.00;99.90
21944;DHT22;11136;48.778;9.126;2023-05-10T10:40:38;18.00;99.90
21944;DHT22;11136;48.778;9.126;2023-05-10T10:43:24;17.90;99.90
21944;DHT22;11136;48.778;9.126;2023-05-10T10:46:15;17.80;99.90
21944;DHT22;11136;48.778;9.126;2023-05-10T10:48:48;17.80;99.90
21944;DHT22;11136;48.778;9.126;2023-05-10T10:51:14;17.70;99.90
21944;DHT22;11136;48.778;9.126;2023-05-10T10:53:41;17.60;99.90
21944;DHT22;11136;48.778;9.126;2023-05-10T10:56:11;17.60;99.90
21944;DHT22;11136;48.778;9.126;2023-05-10T10:58:38;17.50;99.90
21944;DHT22;11136;48.778;9.126;2023-05-10T11:01:17;17.40;99.90
21944;DHT22;11136;48.778;9.126;2023-05-10T11:06:35;17.20;99.90
21944;DHT22;11136;48.778;9.126;2023-05-10T11:09:11;17.10;99.90
21944;DHT22;11136;48.778;9.126;2023-05-10T11:11:51;17.00;99.90
21944;DHT22;11136;48.778;9.126;2023-05-10T11:14:23;17.00;99.90
21944;DHT22;11136;48.778;9.126;2023-05-10T11:16:50;17.00;99.90
21944;DHT22;11136;48.778;9.126;2023-05-10T11:19:16;17.10;99.90
21944;DHT22;11136;48.778;9.126;2023-05-10T11:21:49;17.20;99.90
21944;DHT22;11136;48.778;9.126;2023-05-10T11:24:17;17.30;99.90
21944;DHT22;11136;48.778;9.126;2023-05-10T11:26:43;17.40;99.90
21944;DHT22;11136;48.778;9.126;2023-05-10T11:29:09;17.40;99.90
21944;DHT22;11136;48.778;9.126;2023-05-10T11:31:42;17.40;99.90
21944;DHT22;11136;48.778;9.126;2023-05-10T11:34:09;17.40;99.90
21944;DHT22;11136;48.778;9.126;2023-05-10T11:36:35;17.40;99.90
21944;DHT22;11136;48.778;9.126;2023-05-10T11:39:02;17.30;99.90
21944;DHT22;11136;48.778;9.126;2023-05-10T11:41:29;17.30;99.90
21944;DHT22;11136;48.778;9.126;2023-05-10T11:43:56;17.30;99.90
21944;DHT22;11136;48.778;9.126;2023-05-10T11:46:24;17.30;99.90
21944;DHT22;11136;48.778;9.126;2023-05-10T11:48:53;17.30;99.90
21944;DHT22;11136;48.778;9.126;2023-05-10T11:51:23;17.30;99.90
21944;DHT22;11136;48.778;9.126;2023-05-10T11:53:52;17.30;99.90
21944;DHT22;11136;48.778;9.126;2023-05-10T11:56:18;17.20;99.90
21944;DHT22;11136;48.778;9.126;2023-05-10T11:58:43;17.40;99.90
21944;DHT22;11136;48.778;9.126;2023-05-10T12:01:09;17.20;99.90
21944;DHT22;11136;48.778;9.126;2023-05-10T12:03:36;17.10;99.90
21944;DHT22;11136;48.778;9.126;2023-05-10T12:06:03;17.10;99.90
21944;DHT22;11136;48.778;9.126;2023-05-10T12:08:30;17.10;99.90
21944;DHT22;11136;48.778;9.126;2023-05-10T12:11:09;17.10;99.90
21944;DHT22;11136;48.778;9.126;2023-05-10T12:13:40;17.20;99.90
21944;DHT22;11136;48.778;9.126;2023-05-10T12:16:17;17.30;99.90
21944;DHT22;11136;48.778;9.126;2023-05-10T12:18:43;17.30;99.90
21944;DHT22;11136;48.778;9.126;2023-05-10T12:21:12;17.40;99.90
21944;DHT22;11136;48.778;9.126;2023-05-10T12:23:41;17.50;99.90
21944;DHT22;11136;48.778;9.126;2023-05-10T12:26:09;17.50;99.90
21944;DHT22;11136;48.778;9.126;2023-05-10T12:28:36;17.70;99.90
21944;DHT22;11136;48.778;9.126;2023-05-10T12:31:02;17.60;99.90
21944;DHT22;11136;48.778;9.126;2023-05-10T12:33:53;17.60;99.90
21944;DHT22;11136;48.778;9.126;2023-05-10T12:36:23;17.60;99.50
21944;DHT22;11136;48.778;9.126;2023-05-10T12:38:49;17.70;99.40
21944;DHT22;11136;48.778;9.126;2023-05-10T12:41:16;17.70;99.30
21944;DHT22;11136;48.778;9.126;2023-05-10T12:43:43;17.70;99.50
21944;DHT22;11136;48.778;9.126;2023-05-10T12:48:38;17.80;99.70
21944;DHT22;11136;48.778;9.126;2023-05-10T12:51:04;17.80;99.40
21944;DHT22;11136;48.778;9.126;2023-05-10T12:53:31;17.70;99.00
21944;DHT22;11136;48.778;9.126;2023-05-10T12:55:57;17.70;99.20
21944;DHT22;11136;48.778;9.126;2023-05-10T12:58:22;17.60;99.50
21944;DHT22;11136;48.778;9.126;2023-05-10T13:00:48;17.60;98.90
21944;DHT22;11136;48.778;9.126;2023-05-10T13:03:14;17.50;98.80
21944;DHT22;11136;48.778;9.126;2023-05-10T13:05:41;17.40;99.10
21944;DHT22;11136;48.778;9.126;2023-05-10T13:08:06;17.30;99.10
21944;DHT22;11136;48.778;9.126;2023-05-10T13:10:32;17.30;99.10
21944;DHT22;11136;48.778;9.126;2023-05-10T13:12:58;17.30;99.50
21944;DHT22;11136;48.778;9.126;2023-05-10T13:15:24;17.30;99.90
21944;DHT22;11136;48.778;9.126;2023-05-10T13:17:50;17.30;99.90
21944;DHT22;11136;48.778;9.126;2023-05-10T13:20:16;17.40;99.40
21944;DHT22;11136;48.778;9.126;2023-05-10T13:22:43;17.50;99.60
21944;DHT22;11136;48.778;9.126;2023-05-10T13:25:08;17.50;99.40
21944;DHT22;11136;48.778;9.126;2023-05-10T13:27:34;17.50;98.90
21944;DHT22;11136;48.778;9.126;2023-05-10T13:30:00;17.50;98.50
21944;DHT22;11136;48.778;9.126;2023-05-10T13:32:26;17.50;98.40
21944;DHT22;11136;48.778;9.126;2023-05-10T13:34:51;17.50;98.30
21944;DHT22;11136;48.778;9.126;2023-05-10T13:37:17;17.60;98.90
21944;DHT22;11136;48.778;9.126;2023-05-10T13:39:43;17.60;98.50
21944;DHT22;11136;48.778;9.126;2023-05-10T13:42:09;17.60;98.60
21944;DHT22;11136;48.778;9.126;2023-05-10T13:44:34;17.70;98.70
21944;DHT22;11136;48.778;9.126;2023-05-10T13:47:01;17.60;98.30
21944;DHT22;11136;48.778;9.126;2023-05-10T13:49:27;17.60;98.30
21944;DHT22;11136;48.778;9.126;2023-05-10T13:51:52;17.60;98.20
21944;DHT22;11136;48.778;9.126;2023-05-10T13:54:18;17.50;97.90
21944;DHT22;11136;48.778;9.126;2023-05-10T13:56:47;17.50;97.40
21944;DHT22;11136;48.778;9.126;2023-05-10T13:59:14;17.50;97.80
21944;DHT22;11136;48.778;9.126;2023-05-10T14:01:40;17.60;97.70
21944;DHT22;11136;48.778;9.126;2023-05-10T14:04:05;17.70;97.80
21944;DHT22;11136;48.778;9.126;2023-05-10T14:06:31;17.90;97.30
21944;DHT22;11136;48.778;9.126;2023-05-10T14:08:57;18.00;96.30
21944;DHT22;11136;48.778;9.126;2023-05-10T14:11:22;18.00;96.50
21944;DHT22;11136;48.778;9.126;2023-05-10T14:13:49;18.10;96.20
21944;DHT22;11136;48.778;9.126;2023-05-10T14:16:15;18.00;95.40
21944;DHT22;11136;48.778;9.126;2023-05-10T14:18:41;18.10;95.90
21944;DHT22;11136;48.778;9.126;2023-05-10T14:21:06;18.10;96.20
21944;DHT22;11136;48.778;9.126;2023-05-10T14:23:32;18.10;96.00
21944;DHT22;11136;48.778;9.126;2023-05-10T14:25:57;18.10;95.90
21944;DHT22;11136;48.778;9.126;2023-05-10T14:28:23;18.10;96.10
21944;DHT22;11136;48.778;9.126;2023-05-10T14:30:50;18.20;96.30
21944;DHT22;11136;48.778;9.126;2023-05-10T14:33:16;18.20;95.90
21944;DHT22;11136;48.778;9.126;2023-05-10T14:35:42;18.30;95.70
21944;DHT22;11136;48.778;9.126;2023-05-10T14:38:07;18.30;95.50
21944;DHT22;11136;48.778;9.126;2023-05-10T14:40:33;18.40;95.00
21944;DHT22;11136;48.778;9.126;2023-05-10T14:42:59;18.40;94.60
21944;DHT22;11136;48.778;9.126;2023-05-10T14:45:25;18.40;94.70
21944;DHT22;11136;48.778;9.126;2023-05-10T14:47:50;18.40;94.40
21944;DHT22;11136;48.778;9.126;2023-05-10T14:50:16;18.40;94.70
21944;DHT22;11136;48.778;9.126;2023-05-10T14:52:43;18.30;94.40
21944;DHT22;11136;48.778;9.126;2023-05-10T14:55:09;18.30;94.10
21944;DHT22;11136;48.778;9.126;2023-05-10T14:57:35;18.30;94.40
21944;DHT22;11136;48.778;9.126;2023-05-10T15:00:01;18.30;94.30
21944;DHT22;11136;48.778;9.126;2023-05-10T15:02:27;18.30;94.20
21944;DHT22;11136;48.778;9.126;2023-05-10T15:04:53;18.30;94.20
21944;DHT22;11136;48.778;9.126;2023-05-10T15:07:18;18.40;94.80
21944;DHT22;11136;48.778;9.126;2023-05-10T15:09:46;18.50;95.60
21944;DHT22;11136;48.778;9.126;2023-05-10T15:12:12;18.50;95.20
21944;DHT22;11136;48.778;9.126;2023-05-10T15:14:38;18.60;94.90
21944;DHT22;11136;48.778;9.126;2023-05-10T15:17:06;18.60;94.90
21944;DHT22;11136;48.778;9.126;2023-05-10T15:19:31;18.60;94.40
21944;DHT22;11136;48.778;9.126;2023-05-10T15:21:58;18.60;94.70
21944;DHT22;11136;48.778;9.126;2023-05-10T15:24:24;18.60;95.20
21944;DHT22;11136;48.778;9.126;2023-05-10T15:26:50;18.50;94.30
21944;DHT22;11136;48.778;9.126;2023-05-10T15:29:15;18.50;94.10
21944;DHT22;11136;48.778;9.126;2023-05-10T15:31:46;18.40;93.60
21944;DHT22;11136;48.778;9.126;2023-05-10T15:34:13;18.30;93.30
21944;DHT22;11136;48.778;9.126;2023-05-10T15:36:39;18.30;93.70
21944;DHT22;11136;48.778;9.126;2023-05-10T15:39:04;18.30;94.30
21944;DHT22;11136;48.778;9.126;2023-05-10T15:41:30;18.30;94.70
21944;DHT22;11136;48.778;9.126;2023-05-10T15:43:57;18.30;94.40
21944;DHT22;11136;48.778;9.126;2023-05-10T15:46:25;18.30;94.00
21944;DHT22;11136;48.778;9.126;2023-05-10T15:48:52;18.50;94.00
21944;DHT22;11136;48.778;9.126;2023-05-10T15:51:18;18.30;93.30
21944;DHT22;11136;48.778;9.126;2023-05-10T15:53:44;18.30;93.30
21944;DHT22;11136;48.778;9.126;2023-05-10T15:56:11;18.30;93.10
21944;DHT22;11136;48.778;9.126;2023-05-10T15:58:37;18.30;92.90
21944;DHT22;11136;48.778;9.126;2023-05-10T16:01:03;18.30;92.80
21944;DHT22;11136;48.778;9.126;2023-05-10T16:03:30;18.30;92.70